Star Alliance - SBCY Airport Info

    SBCY (Marechal Rondon Airport)  Login to use Map Selector

  RUNWAY INFORMATION    |    Airport Elevation : 617ft    |    LAT : -15.6528997421  /  LON : -56.1166992188
Runway Number 17 / 35 Runway Width 148' Runway Length 7546'
Lighted Runway No Runway StatusOpen Runway Surface Asphalt
  CLOSE ALTERNATE AIRPORTS
ICAODistanceAirport NameLongest RWRW SurfaceMAP
SB7S12NMEstancia Santo Antonio3937FTAsphalt
SWPK48NMPocone4265FTGravel
SWCE53NMFazenda Cedro Airport5070FTAsphalt
SWJC69NMJaciara Airport3570FTGravel
SWAU70NMAlto Paraguai3281FTGravel
SWDM78NMDiamantino Airport4859FTAsphalt
SB7K81NMFazenda Guanabara5955FTAsphalt
SB8A85NMFazenda Arrossensal4970FTAsphalt
SB9H89NMFazenda Ilha Camargo4913FTAsphalt
SWKC90NMCaceres6070FTAsphalt
SBV392NMFazenda Santa Maria3937FTAsphalt
SB2C97NMTangara Da Serra4941FTAsphalt
SWRD98NMRondonópolis Airport6070FTAsphalt
  AIRPORT WEATHER
99°F | 37°C
Temperature
24%
Humidity
29.7" | 0mb
Pressure
6sm
Visibility
MVFR
Flight Rules
BKN @ 3000ft
Initial Clouds
FAIR
Conditions
Wind Info
11/27/22 19:00Z
Updated

SBCY 271900Z 17006KT 9999 BKN030 37/13 Q1006
  AIRPORT FREQUENCIES
NameFrequency
GROUND118.100
TOWER118.100
APPROACH119.400
DEPARTURE120.350
ICB (RWY 35)109.300
  PILOT ENTERED AIRPORT INFORMATION SEE ALL PILOT ENTERED AIRPORT INFO

Powered by Virtual Airlines Manager